Time;durP1;ratioP1;P1;durP2;ratioP2;P2;SDS_P1;SDS_P2;PMS_P1;PMS_P2;Temp;Humidity;BMP_temperature;BMP_pressure;BME280_temperature;BME280_humidity;BME280_pressure;Samples;Min_cycle;Max_cycle;Signal;HPM_P1;HPM_P2
2023/06/17 00:02:05;;;;;;;;;;;20.90;99.90;;;;;;5094053;28;20416;-74
2023/06/17 00:04:31;;;;;;;;;;;20.90;99.90;;;;;;5094059;28;19904;-73
2023/06/17 00:06:57;;;;;;;;;;;20.90;99.90;;;;;;5093893;28;19908;-73
2023/06/17 00:09:23;;;;;;;;;;;20.80;99.90;;;;;;5094332;28;19912;-74
2023/06/17 00:11:48;;;;;;;;;;;20.80;99.90;;;;;;5093976;28;20375;-73
2023/06/17 00:14:16;;;;;;;;;;;20.70;99.90;;;;;;5093569;28;19923;-73
2023/06/17 00:16:45;;;;;;;;;;;20.70;99.90;;;;;;5098270;28;19934;-73
2023/06/17 00:19:13;;;;;;;;;;;20.70;99.90;;;;;;5093813;28;19910;-73
2023/06/17 00:21:39;;;;;;;;;;;20.70;99.90;;;;;;5093667;28;19950;-73
2023/06/17 00:24:05;;;;;;;;;;;20.60;99.90;;;;;;5075546;28;19910;-74
2023/06/17 00:26:31;;;;;;;;;;;20.60;99.90;;;;;;5075597;28;19987;-73
2023/06/17 00:28:57;;;;;;;;;;;20.60;99.90;;;;;;5093856;28;19908;-73
2023/06/17 00:31:29;;;;;;;;;;;20.60;99.90;;;;;;5093778;28;19965;-73
2023/06/17 00:33:55;;;;;;;;;;;20.60;99.90;;;;;;5093418;28;19999;-72
2023/06/17 00:36:21;;;;;;;;;;;20.60;99.90;;;;;;5093956;28;19962;-74
2023/06/17 00:38:46;;;;;;;;;;;20.70;99.90;;;;;;5093459;28;19949;-73
2023/06/17 00:41:12;;;;;;;;;;;20.70;99.90;;;;;;5093471;28;19911;-73
2023/06/17 00:43:38;;;;;;;;;;;20.60;99.90;;;;;;5092143;28;19911;-72
2023/06/17 00:46:04;;;;;;;;;;;20.70;99.90;;;;;;5093275;28;20041;-73
2023/06/17 00:48:30;;;;;;;;;;;20.60;99.90;;;;;;5093626;28;19915;-73
2023/06/17 00:51:01;;;;;;;;;;;20.50;99.90;;;;;;5075232;28;20378;-72
2023/06/17 00:53:28;;;;;;;;;;;20.50;99.90;;;;;;5093497;28;20002;-73
2023/06/17 00:55:54;;;;;;;;;;;20.60;99.90;;;;;;5093249;28;19904;-73
2023/06/17 00:58:20;;;;;;;;;;;20.60;99.90;;;;;;5093717;28;19904;-74
2023/06/17 01:00:46;;;;;;;;;;;20.60;99.90;;;;;;5093079;28;19995;-74
2023/06/17 01:03:13;;;;;;;;;;;20.70;99.90;;;;;;5093192;28;20275;-73
2023/06/17 01:05:40;;;;;;;;;;;20.70;99.90;;;;;;5075061;28;19904;-72
2023/06/17 01:08:33;;;;;;;;;;;20.70;99.90;;;;;;5093201;28;19943;-73
2023/06/17 01:11:03;;;;;;;;;;;20.70;99.90;;;;;;5093346;28;19966;-73
2023/06/17 01:13:29;;;;;;;;;;;20.60;99.90;;;;;;5092941;28;20276;-73
2023/06/17 01:15:56;;;;;;;;;;;20.60;99.90;;;;;;5093016;28;19904;-74
2023/06/17 01:18:21;;;;;;;;;;;20.50;99.90;;;;;;5093023;28;20374;-73
2023/06/17 01:20:54;;;;;;;;;;;20.40;99.90;;;;;;5093193;28;20029;-73
2023/06/17 01:23:26;;;;;;;;;;;20.30;99.90;;;;;;5092874;28;19904;-73
2023/06/17 01:25:52;;;;;;;;;;;20.20;99.90;;;;;;5093407;28;19915;-73
2023/06/17 01:28:20;;;;;;;;;;;20.30;99.90;;;;;;5092955;28;19904;-73
2023/06/17 01:30:54;;;;;;;;;;;20.40;99.90;;;;;;5092854;28;19992;-72
2023/06/17 01:33:20;;;;;;;;;;;20.40;99.90;;;;;;5093344;28;19904;-73
2023/06/17 01:35:49;;;;;;;;;;;20.30;99.90;;;;;;5093141;28;19911;-74
2023/06/17 01:38:34;;;;;;;;;;;20.30;99.90;;;;;;5093406;28;19904;-73
2023/06/17 01:41:06;;;;;;;;;;;20.30;99.90;;;;;;5094671;28;19905;-73
2023/06/17 01:43:34;;;;;;;;;;;20.20;99.90;;;;;;5093788;28;19915;-74
2023/06/17 01:46:00;;;;;;;;;;;20.20;99.90;;;;;;5095228;28;19948;-73
2023/06/17 01:48:26;;;;;;;;;;;20.20;99.90;;;;;;5096661;28;20309;-73
2023/06/17 01:50:52;;;;;;;;;;;20.20;99.90;;;;;;5096974;28;19926;-73
2023/06/17 01:53:18;;;;;;;;;;;20.10;99.90;;;;;;5096801;28;19908;-73
2023/06/17 01:55:44;;;;;;;;;;;20.10;99.90;;;;;;5096517;28;19904;-73
2023/06/17 01:58:10;;;;;;;;;;;20.20;99.90;;;;;;5096503;28;20383;-74
2023/06/17 02:00:36;;;;;;;;;;;20.20;99.90;;;;;;5096764;28;20229;-73
2023/06/17 02:03:02;;;;;;;;;;;20.10;99.90;;;;;;5096355;28;20318;-71
2023/06/17 02:05:27;;;;;;;;;;;20.10;99.90;;;;;;5096585;28;20306;-73
2023/06/17 02:07:55;;;;;;;;;;;20.10;99.90;;;;;;5096306;28;19947;-74
2023/06/17 02:10:20;;;;;;;;;;;20.10;99.90;;;;;;5096195;28;19912;-73
2023/06/17 02:12:46;;;;;;;;;;;20.00;99.90;;;;;;5096244;28;19904;-73
2023/06/17 02:15:12;;;;;;;;;;;20.10;99.90;;;;;;5096756;28;19956;-73
2023/06/17 02:17:38;;;;;;;;;;;20.10;99.90;;;;;;5096137;28;19984;-73
2023/06/17 02:20:06;;;;;;;;;;;20.00;99.90;;;;;;5096643;28;19930;-73
2023/06/17 02:22:32;;;;;;;;;;;20.00;99.90;;;;;;5096186;28;19956;-73
2023/06/17 02:24:57;;;;;;;;;;;20.00;99.90;;;;;;5095920;28;20016;-73
2023/06/17 02:27:23;;;;;;;;;;;20.00;99.90;;;;;;5096073;28;20366;-73
2023/06/17 02:29:49;;;;;;;;;;;20.10;99.90;;;;;;5095854;28;19912;-73
2023/06/17 02:32:17;;;;;;;;;;;20.00;99.90;;;;;;5095682;28;19910;-73
2023/06/17 02:34:43;;;;;;;;;;;20.10;99.90;;;;;;5095794;28;19908;-73
2023/06/17 02:37:09;;;;;;;;;;;20.00;99.90;;;;;;5096305;28;19911;-73
2023/06/17 02:39:35;;;;;;;;;;;20.10;99.90;;;;;;5095891;28;19958;-73
2023/06/17 02:42:01;;;;;;;;;;;20.10;99.90;;;;;;5095669;28;19904;-74
2023/06/17 02:44:27;;;;;;;;;;;20.20;99.90;;;;;;5095531;28;20263;-73
2023/06/17 02:46:53;;;;;;;;;;;20.10;99.90;;;;;;5094045;28;20317;-74
2023/06/17 02:49:18;;;;;;;;;;;20.10;99.90;;;;;;5077382;28;19949;-73
2023/06/17 02:51:45;;;;;;;;;;;20.10;99.90;;;;;;5094087;28;19904;-73
2023/06/17 02:54:11;;;;;;;;;;;20.00;99.90;;;;;;5095347;28;19911;-73
2023/06/17 02:56:37;;;;;;;;;;;19.90;99.90;;;;;;5093954;28;19907;-74
2023/06/17 02:59:03;;;;;;;;;;;19.90;99.90;;;;;;5095430;28;20007;-73
2023/06/17 03:01:29;;;;;;;;;;;19.90;99.90;;;;;;5095175;28;20271;-73
2023/06/17 03:03:54;;;;;;;;;;;19.90;99.90;;;;;;5095261;28;19904;-73
2023/06/17 03:06:21;;;;;;;;;;;19.90;99.90;;;;;;5097463;28;19911;-74
2023/06/17 03:08:47;;;;;;;;;;;19.90;99.90;;;;;;5095827;28;20003;-73
2023/06/17 03:11:13;;;;;;;;;;;20.00;99.90;;;;;;5094947;28;20089;-73
2023/06/17 03:13:39;;;;;;;;;;;20.00;99.90;;;;;;5073181;28;19959;-73
2023/06/17 03:16:05;;;;;;;;;;;20.00;99.90;;;;;;5074655;28;19911;-71
2023/06/17 03:18:31;;;;;;;;;;;20.00;99.90;;;;;;5074739;28;19911;-73
2023/06/17 03:20:57;;;;;;;;;;;20.10;99.90;;;;;;5075135;28;19991;-74
2023/06/17 03:23:23;;;;;;;;;;;20.20;99.90;;;;;;5074578;28;19911;-73
2023/06/17 03:25:49;;;;;;;;;;;20.20;99.90;;;;;;5074538;28;19970;-73
2023/06/17 03:28:15;;;;;;;;;;;20.10;99.90;;;;;;5075015;28;19912;-73
2023/06/17 03:30:41;;;;;;;;;;;20.10;99.90;;;;;;5074187;28;19958;-73
2023/06/17 03:33:11;;;;;;;;;;;20.10;99.90;;;;;;5074447;28;19908;-73
2023/06/17 03:35:37;;;;;;;;;;;20.00;99.90;;;;;;5074739;28;20240;-73
2023/06/17 03:38:03;;;;;;;;;;;19.90;99.90;;;;;;5089874;28;20047;-73
2023/06/17 03:40:28;;;;;;;;;;;19.90;99.90;;;;;;5074289;28;19961;-72
2023/06/17 03:42:54;;;;;;;;;;;19.90;99.90;;;;;;5074177;28;19936;-73
2023/06/17 03:45:20;;;;;;;;;;;20.00;99.90;;;;;;5074139;28;19911;-73
2023/06/17 03:47:46;;;;;;;;;;;20.00;99.90;;;;;;5073910;28;19911;-74
2023/06/17 03:50:13;;;;;;;;;;;20.10;99.90;;;;;;5074037;28;19920;-73
2023/06/17 03:52:40;;;;;;;;;;;20.10;99.90;;;;;;5072685;28;19904;-73
2023/06/17 03:55:06;;;;;;;;;;;20.10;99.90;;;;;;5073970;28;19904;-73
2023/06/17 03:57:33;;;;;;;;;;;20.20;99.90;;;;;;5073905;28;19916;-74
2023/06/17 03:59:58;;;;;;;;;;;20.30;99.90;;;;;;5073994;28;19915;-74
2023/06/17 04:02:24;;;;;;;;;;;20.30;99.90;;;;;;5073797;28;20273;-73
2023/06/17 04:04:53;;;;;;;;;;;20.40;99.90;;;;;;5074365;28;19904;-74
2023/06/17 04:07:20;;;;;;;;;;;20.40;99.90;;;;;;5073745;28;19970;-74
2023/06/17 04:09:46;;;;;;;;;;;20.50;99.90;;;;;;5073664;28;20019;-74
2023/06/17 04:12:12;;;;;;;;;;;20.50;99.90;;;;;;5073644;28;19955;-73
2023/06/17 04:14:38;;;;;;;;;;;20.60;99.90;;;;;;5091355;28;20271;-73
2023/06/17 04:17:06;;;;;;;;;;;20.60;99.90;;;;;;5093778;28;20334;-74
2023/06/17 04:19:37;;;;;;;;;;;20.60;99.90;;;;;;5093833;28;19904;-75
2023/06/17 04:22:04;;;;;;;;;;;20.40;99.90;;;;;;5094170;28;19908;-73
2023/06/17 04:24:30;;;;;;;;;;;20.30;99.90;;;;;;5094025;28;19951;-74
2023/06/17 04:26:55;;;;;;;;;;;20.30;99.90;;;;;;5093736;28;19943;-73
2023/06/17 04:29:21;;;;;;;;;;;20.30;99.90;;;;;;5075647;28;19912;-73
2023/06/17 04:31:47;;;;;;;;;;;20.30;99.90;;;;;;5093582;28;19967;-74
2023/06/17 04:34:21;;;;;;;;;;;20.40;99.90;;;;;;5093544;28;19904;-74
2023/06/17 04:36:49;;;;;;;;;;;20.40;99.90;;;;;;5093601;28;19904;-73
2023/06/17 04:39:16;;;;;;;;;;;20.40;99.90;;;;;;5093641;28;19904;-73
2023/06/17 04:41:45;;;;;;;;;;;20.50;99.90;;;;;;5093972;28;19904;-73
2023/06/17 04:44:12;;;;;;;;;;;20.50;99.90;;;;;;5093746;28;19911;-74
2023/06/17 04:46:38;;;;;;;;;;;20.40;99.90;;;;;;5093425;28;20397;-73
2023/06/17 04:49:04;;;;;;;;;;;20.60;99.90;;;;;;5093416;28;19985;-74
2023/06/17 04:51:37;;;;;;;;;;;20.70;99.90;;;;;;5093794;28;20290;-74
2023/06/17 04:54:05;;;;;;;;;;;21.00;99.90;;;;;;5093382;28;20372;-74
2023/06/17 04:56:31;;;;;;;;;;;21.20;99.90;;;;;;5093261;28;19904;-74
2023/06/17 04:58:57;;;;;;;;;;;21.40;99.90;;;;;;5093339;28;19911;-74
2023/06/17 05:01:22;;;;;;;;;;;22.00;99.90;;;;;;5093025;28;19904;-74
2023/06/17 05:03:48;;;;;;;;;;;23.30;99.90;;;;;;5093761;28;20371;-74
2023/06/17 05:06:14;;;;;;;;;;;24.70;99.90;;;;;;5093305;28;19904;-74
2023/06/17 05:08:40;;;;;;;;;;;25.70;99.90;;;;;;5093719;28;20315;-74
2023/06/17 05:11:06;;;;;;;;;;;26.70;99.90;;;;;;5093356;28;19974;-74
2023/06/17 05:13:32;;;;;;;;;;;27.40;99.90;;;;;;5074846;28;19916;-75
2023/06/17 05:15:57;;;;;;;;;;;28.50;99.90;;;;;;5093044;28;19911;-75
2023/06/17 05:18:23;;;;;;;;;;;29.70;99.90;;;;;;5093645;28;19911;-75
2023/06/17 05:20:49;;;;;;;;;;;29.80;99.90;;;;;;5095325;28;19904;-74
2023/06/17 05:23:15;;;;;;;;;;;29.40;99.90;;;;;;5097069;28;19939;-74
2023/06/17 05:25:41;;;;;;;;;;;29.00;99.90;;;;;;5097620;28;20236;-74
2023/06/17 05:28:07;;;;;;;;;;;29.20;99.90;;;;;;5097058;28;19904;-75
2023/06/17 05:30:33;;;;;;;;;;;29.60;99.90;;;;;;5097439;28;19912;-74
2023/06/17 05:32:58;;;;;;;;;;;29.70;99.90;;;;;;5096878;28;19984;-75
2023/06/17 05:35:24;;;;;;;;;;;29.70;99.90;;;;;;5096991;28;20422;-74
2023/06/17 05:37:50;;;;;;;;;;;30.40;99.90;;;;;;5095679;28;19910;-74
2023/06/17 05:40:16;;;;;;;;;;;30.90;99.90;;;;;;5097373;28;20268;-74
2023/06/17 05:42:42;;;;;;;;;;;30.90;99.90;;;;;;5097089;28;19908;-74
2023/06/17 05:45:08;;;;;;;;;;;31.30;99.90;;;;;;5097131;28;20244;-74
2023/06/17 05:47:33;;;;;;;;;;;31.60;99.90;;;;;;5096742;28;19939;-74
2023/06/17 05:49:59;;;;;;;;;;;31.70;99.90;;;;;;5095267;28;19994;-75
2023/06/17 05:52:25;;;;;;;;;;;32.00;99.90;;;;;;5078506;28;19905;-74
2023/06/17 05:54:51;;;;;;;;;;;32.30;99.90;;;;;;5096738;28;19905;-75
2023/06/17 05:57:16;;;;;;;;;;;33.20;99.90;;;;;;5096731;28;19904;-74
2023/06/17 05:59:42;;;;;;;;;;;33.40;99.90;;;;;;5096819;28;19904;-74
2023/06/17 06:02:08;;;;;;;;;;;33.80;99.90;;;;;;5096367;28;19942;-74
2023/06/17 06:04:34;;;;;;;;;;;34.30;99.60;;;;;;5099155;28;19983;-73
2023/06/17 06:07:00;;;;;;;;;;;34.00;99.30;;;;;;5096521;28;19911;-74
2023/06/17 06:09:25;;;;;;;;;;;34.50;98.90;;;;;;5096376;28;19919;-75
2023/06/17 06:11:51;;;;;;;;;;;34.80;98.40;;;;;;5096805;28;20407;-74
2023/06/17 06:14:17;;;;;;;;;;;35.00;97.50;;;;;;5096109;28;19916;-74
2023/06/17 06:16:43;;;;;;;;;;;34.00;98.40;;;;;;5096080;28;19904;-75
2023/06/17 06:19:08;;;;;;;;;;;33.70;97.80;;;;;;5078122;28;20334;-73
2023/06/17 06:21:34;;;;;;;;;;;33.90;98.20;;;;;;5096412;28;20360;-73
2023/06/17 06:24:00;;;;;;;;;;;34.20;97.70;;;;;;5095713;28;19911;-73
2023/06/17 06:26:26;;;;;;;;;;;34.50;97.30;;;;;;5096339;28;19935;-75
2023/06/17 06:28:52;;;;;;;;;;;35.30;96.40;;;;;;5096325;28;20366;-75
2023/06/17 06:31:19;;;;;;;;;;;35.10;96.30;;;;;;5095311;28;19912;-75
2023/06/17 06:33:44;;;;;;;;;;;35.50;96.10;;;;;;5096346;28;20356;-75
2023/06/17 06:36:11;;;;;;;;;;;37.10;94.90;;;;;;5095753;28;19911;-74
2023/06/17 06:38:37;;;;;;;;;;;38.20;93.10;;;;;;5096110;28;20008;-74
2023/06/17 06:41:02;;;;;;;;;;;37.60;92.50;;;;;;5095918;28;20326;-74
2023/06/17 06:43:28;;;;;;;;;;;36.40;92.50;;;;;;5096112;28;20364;-73
2023/06/17 06:45:54;;;;;;;;;;;36.20;92.60;;;;;;5095845;28;19939;-74
2023/06/17 06:48:20;;;;;;;;;;;36.30;92.00;;;;;;5077232;28;19904;-75
2023/06/17 06:50:46;;;;;;;;;;;36.50;91.40;;;;;;5095385;28;20006;-75
2023/06/17 06:53:11;;;;;;;;;;;38.20;91.30;;;;;;5095278;28;19912;-73
2023/06/17 06:55:37;;;;;;;;;;;38.80;90.20;;;;;;5095406;28;19910;-74
2023/06/17 06:58:03;;;;;;;;;;;38.30;89.00;;;;;;5095340;28;19904;-74
2023/06/17 07:00:29;;;;;;;;;;;38.40;86.80;;;;;;5076968;28;19908;-74
2023/06/17 07:02:56;;;;;;;;;;;37.60;86.20;;;;;;5095091;28;19904;-75
2023/06/17 07:05:24;;;;;;;;;;;37.40;86.50;;;;;;5095136;28;20018;-74
2023/06/17 07:07:50;;;;;;;;;;;37.10;86.60;;;;;;5095164;28;19911;-75
2023/06/17 07:10:16;;;;;;;;;;;37.00;86.50;;;;;;5094899;28;20010;-74
2023/06/17 07:12:41;;;;;;;;;;;37.00;87.30;;;;;;5095034;28;19904;-74
2023/06/17 07:15:07;;;;;;;;;;;38.80;90.70;;;;;;5095591;28;19922;-74
2023/06/17 07:17:33;;;;;;;;;;;37.30;92.30;;;;;;5093605;28;20020;-74
2023/06/17 07:19:59;;;;;;;;;;;37.00;93.20;;;;;;5094885;28;20279;-73
2023/06/17 07:22:25;;;;;;;;;;;36.10;93.70;;;;;;5094616;28;19993;-73
2023/06/17 07:24:51;;;;;;;;;;;36.20;93.90;;;;;;5095020;28;19903;-74
2023/06/17 07:27:17;;;;;;;;;;;34.80;94.70;;;;;;5094999;28;19911;-74
2023/06/17 07:29:42;;;;;;;;;;;33.70;95.30;;;;;;5095396;28;19958;-74
2023/06/17 07:32:08;;;;;;;;;;;33.50;96.50;;;;;;5094521;28;19908;-74
2023/06/17 07:34:34;;;;;;;;;;;32.90;96.70;;;;;;5094537;28;19916;-73
2023/06/17 07:37:00;;;;;;;;;;;32.30;97.60;;;;;;5094965;28;19995;-73
2023/06/17 07:39:26;;;;;;;;;;;31.90;97.40;;;;;;5076428;28;19959;-74
2023/06/17 07:41:52;;;;;;;;;;;32.50;97.30;;;;;;5094220;28;19957;-73
2023/06/17 07:44:17;;;;;;;;;;;32.70;97.90;;;;;;5075311;28;20431;-73
2023/06/17 07:46:43;;;;;;;;;;;32.80;98.40;;;;;;5094441;28;19904;-74
2023/06/17 07:49:09;;;;;;;;;;;32.90;98.30;;;;;;5094433;28;19912;-73
2023/06/17 07:51:35;;;;;;;;;;;33.20;98.70;;;;;;5094229;28;19985;-74
2023/06/17 07:54:01;;;;;;;;;;;33.30;98.60;;;;;;5094177;28;19904;-73
2023/06/17 07:56:27;;;;;;;;;;;33.60;98.40;;;;;;5094018;28;20451;-73
2023/06/17 07:58:53;;;;;;;;;;;32.60;98.90;;;;;;5075786;28;19911;-74
2023/06/17 08:01:20;;;;;;;;;;;32.40;99.90;;;;;;5094260;28;19916;-73
2023/06/17 08:03:46;;;;;;;;;;;32.70;99.60;;;;;;5094260;28;19911;-73
2023/06/17 08:06:15;;;;;;;;;;;33.10;98.90;;;;;;5094166;28;19904;-74
2023/06/17 08:08:41;;;;;;;;;;;32.50;99.10;;;;;;5075637;28;19904;-73
2023/06/17 08:11:07;;;;;;;;;;;32.80;98.60;;;;;;5094194;28;19922;-75
2023/06/17 08:13:33;;;;;;;;;;;32.80;98.40;;;;;;5072006;28;20385;-74
2023/06/17 08:15:59;;;;;;;;;;;32.30;98.80;;;;;;5074066;28;20271;-72
2023/06/17 08:18:24;;;;;;;;;;;32.10;98.80;;;;;;5073437;28;20419;-74
2023/06/17 08:20:50;;;;;;;;;;;32.60;98.70;;;;;;5073631;28;20004;-74
2023/06/17 08:23:16;;;;;;;;;;;32.60;98.00;;;;;;5072080;28;20356;-74
2023/06/17 08:25:42;;;;;;;;;;;32.30;98.30;;;;;;5088827;28;19958;-74
2023/06/17 08:28:08;;;;;;;;;;;32.10;99.30;;;;;;5074172;28;19946;-74
2023/06/17 08:30:34;;;;;;;;;;;32.50;99.60;;;;;;5074199;28;19913;-73
2023/06/17 08:33:00;;;;;;;;;;;32.30;99.70;;;;;;5073061;28;19950;-74
2023/06/17 08:35:25;;;;;;;;;;;31.60;99.90;;;;;;5088708;28;20357;-73
2023/06/17 08:37:51;;;;;;;;;;;32.10;99.90;;;;;;5073261;28;19999;-73
2023/06/17 08:40:18;;;;;;;;;;;31.90;99.90;;;;;;5073047;28;20367;-75
2023/06/17 08:42:43;;;;;;;;;;;32.10;99.90;;;;;;5073211;28;19965;-74
2023/06/17 08:45:10;;;;;;;;;;;32.60;99.90;;;;;;5073162;28;20007;-74
2023/06/17 08:47:36;;;;;;;;;;;32.70;99.90;;;;;;5073048;28;20382;-75
2023/06/17 08:50:02;;;;;;;;;;;32.90;99.90;;;;;;5073116;28;19913;-75
2023/06/17 08:52:29;;;;;;;;;;;33.10;99.90;;;;;;5072946;28;19936;-74
2023/06/17 08:54:55;;;;;;;;;;;32.60;99.90;;;;;;5073081;28;19904;-74
2023/06/17 08:57:21;;;;;;;;;;;32.00;99.90;;;;;;5072978;28;19912;-74
2023/06/17 08:59:47;;;;;;;;;;;32.30;99.10;;;;;;5073252;28;19904;-74
2023/06/17 09:02:14;;;;;;;;;;;32.30;99.10;;;;;;5072832;28;20340;-73
2023/06/17 09:04:40;;;;;;;;;;;32.80;98.80;;;;;;5088370;28;19904;-74
2023/06/17 09:07:08;;;;;;;;;;;32.70;98.50;;;;;;5073010;28;19905;-74
2023/06/17 09:09:34;;;;;;;;;;;32.50;98.30;;;;;;5072828;28;19999;-74
2023/06/17 09:12:01;;;;;;;;;;;32.10;98.30;;;;;;5073253;28;20353;-74
2023/06/17 09:14:27;;;;;;;;;;;32.40;97.80;;;;;;5088611;28;19916;-75
2023/06/17 09:16:53;;;;;;;;;;;31.60;94.70;;;;;;5092975;28;20409;-74
2023/06/17 09:19:22;;;;;;;;;;;31.10;92.00;;;;;;5093372;28;19915;-74
2023/06/17 09:21:48;;;;;;;;;;;31.50;93.30;;;;;;5093036;28;20409;-74
2023/06/17 09:24:14;;;;;;;;;;;31.90;91.40;;;;;;5092892;28;20110;-75
2023/06/17 09:26:40;;;;;;;;;;;31.50;90.90;;;;;;5093175;28;19904;-73
2023/06/17 09:29:07;;;;;;;;;;;31.40;91.10;;;;;;5093102;28;19904;-74
2023/06/17 09:31:45;;;;;;;;;;;31.70;91.30;;;;;;5091366;28;20363;-75
2023/06/17 09:34:11;;;;;;;;;;;31.90;91.30;;;;;;5093067;28;19904;-74
2023/06/17 09:36:40;;;;;;;;;;;32.20;90.80;;;;;;5092815;28;19995;-74
2023/06/17 09:39:08;;;;;;;;;;;32.30;94.10;;;;;;5093060;28;19943;-75
2023/06/17 09:41:37;;;;;;;;;;;32.10;99.90;;;;;;5092761;28;19910;-74
2023/06/17 09:44:03;;;;;;;;;;;32.00;99.90;;;;;;5092840;28;19904;-74
2023/06/17 09:46:29;;;;;;;;;;;31.50;99.90;;;;;;5092910;28;19961;-74
2023/06/17 09:48:57;;;;;;;;;;;31.70;99.90;;;;;;5092700;28;19944;-74
2023/06/17 09:51:23;;;;;;;;;;;31.20;99.90;;;;;;5074546;28;19916;-74
2023/06/17 09:53:59;;;;;;;;;;;31.00;99.90;;;;;;5074515;28;19904;-74
2023/06/17 09:56:25;;;;;;;;;;;31.10;99.90;;;;;;5093048;28;19904;-74
2023/06/17 09:58:51;;;;;;;;;;;31.10;99.90;;;;;;5092589;28;19904;-74
2023/06/17 10:01:17;;;;;;;;;;;31.00;99.90;;;;;;5092448;28;20042;-74
2023/06/17 10:03:43;;;;;;;;;;;30.40;99.90;;;;;;5092563;28;19915;-73
2023/06/17 10:06:10;;;;;;;;;;;29.70;99.90;;;;;;5075266;28;19908;-73
2023/06/17 10:08:47;;;;;;;;;;;29.20;99.90;;;;;;5096252;28;19966;-73
2023/06/17 10:11:14;;;;;;;;;;;29.50;99.90;;;;;;5096504;28;19919;-73
2023/06/17 10:13:41;;;;;;;;;;;29.50;99.90;;;;;;5095987;28;19915;-73
2023/06/17 10:16:12;;;;;;;;;;;29.80;99.90;;;;;;5096093;28;20364;-74
2023/06/17 10:18:46;;;;;;;;;;;29.60;99.90;;;;;;5095932;28;19904;-74
2023/06/17 10:21:12;;;;;;;;;;;30.00;99.90;;;;;;5096330;28;19908;-74
2023/06/17 10:23:39;;;;;;;;;;;30.60;99.90;;;;;;5095951;28;19908;-73
2023/06/17 10:26:06;;;;;;;;;;;30.60;99.90;;;;;;5096029;28;19910;-73
2023/06/17 10:28:45;;;;;;;;;;;30.20;99.90;;;;;;5095867;28;19904;-74
2023/06/17 10:31:21;;;;;;;;;;;30.50;99.90;;;;;;5095721;28;19912;-74
2023/06/17 10:33:48;;;;;;;;;;;30.70;99.90;;;;;;5094291;28;19939;-74
2023/06/17 10:36:14;;;;;;;;;;;30.50;99.90;;;;;;5077470;28;19990;-72
2023/06/17 10:38:40;;;;;;;;;;;30.70;99.90;;;;;;5096231;28;19949;-73
2023/06/17 10:41:06;;;;;;;;;;;31.00;99.70;;;;;;5095758;28;20298;-74
2023/06/17 10:43:37;;;;;;;;;;;30.90;96.20;;;;;;5096148;28;19904;-73
2023/06/17 10:46:03;;;;;;;;;;;30.80;94.30;;;;;;5095736;28;19994;-73
2023/06/17 10:48:32;;;;;;;;;;;31.00;96.00;;;;;;5095357;28;19954;-73
2023/06/17 10:51:11;;;;;;;;;;;31.20;96.30;;;;;;5095694;28;20291;-73
2023/06/17 10:53:37;;;;;;;;;;;31.20;96.70;;;;;;5095368;28;19935;-73
2023/06/17 10:56:04;;;;;;;;;;;30.70;97.40;;;;;;5095658;28;19904;-73
2023/06/17 10:58:31;;;;;;;;;;;30.80;99.90;;;;;;5095200;28;19908;-73
2023/06/17 11:01:01;;;;;;;;;;;31.20;99.90;;;;;;5095271;28;19912;-73
2023/06/17 11:03:27;;;;;;;;;;;31.30;99.90;;;;;;5094784;28;19908;-74
2023/06/17 11:05:56;;;;;;;;;;;31.00;99.90;;;;;;5095527;28;19919;-73
2023/06/17 11:08:22;;;;;;;;;;;30.30;99.90;;;;;;5095158;28;19904;-73
2023/06/17 11:10:48;;;;;;;;;;;30.50;99.90;;;;;;5094911;28;19937;-73
2023/06/17 11:13:18;;;;;;;;;;;30.10;99.90;;;;;;5094766;28;19915;-73
2023/06/17 11:15:44;;;;;;;;;;;30.40;99.90;;;;;;5095361;28;19958;-75
2023/06/17 11:18:11;;;;;;;;;;;30.50;99.90;;;;;;5093443;28;19904;-73
2023/06/17 11:20:36;;;;;;;;;;;30.90;99.90;;;;;;5094992;28;19911;-74
2023/06/17 11:23:03;;;;;;;;;;;31.10;99.90;;;;;;5094910;28;19904;-74
2023/06/17 11:25:29;;;;;;;;;;;31.20;99.90;;;;;;5094638;28;19908;-73
2023/06/17 11:27:56;;;;;;;;;;;31.10;99.90;;;;;;5094910;28;19904;-74
2023/06/17 11:30:25;;;;;;;;;;;30.70;99.90;;;;;;5094647;28;19915;-74
2023/06/17 11:32:51;;;;;;;;;;;30.60;99.90;;;;;;5094335;28;19912;-74
2023/06/17 11:35:17;;;;;;;;;;;30.60;99.90;;;;;;5094932;28;19904;-74
2023/06/17 11:37:43;;;;;;;;;;;30.60;99.90;;;;;;5094361;28;19946;-74
2023/06/17 11:40:10;;;;;;;;;;;30.70;99.90;;;;;;5094534;28;19903;-74
2023/06/17 11:42:36;;;;;;;;;;;30.90;99.90;;;;;;5093128;28;19904;-74
2023/06/17 11:45:02;;;;;;;;;;;30.70;99.90;;;;;;5094378;28;20461;-75
2023/06/17 11:47:35;;;;;;;;;;;31.20;99.90;;;;;;5094144;28;19904;-74
2023/06/17 11:50:03;;;;;;;;;;;30.90;99.90;;;;;;5094431;28;19972;-74
2023/06/17 11:52:29;;;;;;;;;;;31.00;99.90;;;;;;5092795;28;19915;-74
2023/06/17 11:54:55;;;;;;;;;;;31.20;99.90;;;;;;5094220;28;19904;-74
2023/06/17 11:57:21;;;;;;;;;;;31.40;99.90;;;;;;5094464;28;19911;-74
2023/06/17 11:59:47;;;;;;;;;;;31.10;99.90;;;;;;5093943;28;19926;-74
2023/06/17 12:02:14;;;;;;;;;;;31.20;99.90;;;;;;5075697;28;19904;-74
2023/06/17 12:04:42;;;;;;;;;;;31.40;99.90;;;;;;5093712;28;19939;-74
2023/06/17 12:07:08;;;;;;;;;;;31.20;99.90;;;;;;5094137;28;19904;-75
2023/06/17 12:09:37;;;;;;;;;;;31.30;99.90;;;;;;5093884;28;19912;-75
2023/06/17 12:12:04;;;;;;;;;;;30.60;99.90;;;;;;5093821;28;19999;-73
2023/06/17 12:14:29;;;;;;;;;;;31.00;99.90;;;;;;5093635;28;19923;-72
2023/06/17 12:16:55;;;;;;;;;;;31.30;99.90;;;;;;5093962;28;20334;-74
2023/06/17 12:19:22;;;;;;;;;;;31.20;99.90;;;;;;5093780;28;19908;-74
2023/06/17 12:21:48;;;;;;;;;;;31.20;99.90;;;;;;5093597;28;19949;-75
2023/06/17 12:24:15;;;;;;;;;;;31.20;99.90;;;;;;5075274;28;19904;-74
2023/06/17 12:26:41;;;;;;;;;;;31.00;99.90;;;;;;5093791;28;19957;-74
2023/06/17 12:29:06;;;;;;;;;;;30.70;99.90;;;;;;5093142;28;19904;-75
2023/06/17 12:31:34;;;;;;;;;;;30.60;99.90;;;;;;5093336;28;19972;-74
2023/06/17 12:33:59;;;;;;;;;;;30.50;99.90;;;;;;5092097;28;19908;-74
2023/06/17 12:36:26;;;;;;;;;;;30.40;99.90;;;;;;5093513;28;20257;-73
2023/06/17 12:38:52;;;;;;;;;;;30.50;99.90;;;;;;5093319;28;19943;-74
2023/06/17 12:41:18;;;;;;;;;;;30.80;99.90;;;;;;5093295;28;19904;-74
2023/06/17 12:43:44;;;;;;;;;;;31.00;99.90;;;;;;5093561;28;19911;-74
2023/06/17 12:46:10;;;;;;;;;;;31.10;99.90;;;;;;5093108;28;19908;-73
2023/06/17 12:48:36;;;;;;;;;;;30.70;99.90;;;;;;5093019;28;19904;-75
2023/06/17 12:51:06;;;;;;;;;;;30.60;99.90;;;;;;5092985;28;20271;-74
2023/06/17 12:53:32;;;;;;;;;;;30.50;99.90;;;;;;5093465;28;20348;-74
2023/06/17 12:55:58;;;;;;;;;;;30.60;99.90;;;;;;5093169;28;19912;-74
2023/06/17 12:58:25;;;;;;;;;;;30.60;99.90;;;;;;5093378;28;19904;-74
2023/06/17 13:00:53;;;;;;;;;;;30.40;99.90;;;;;;5093277;28;19904;-74
2023/06/17 13:03:20;;;;;;;;;;;29.90;99.90;;;;;;5092953;28;19908;-74
2023/06/17 13:05:49;;;;;;;;;;;30.00;99.90;;;;;;5093272;28;19926;-74
2023/06/17 13:08:15;;;;;;;;;;;30.10;99.90;;;;;;5093097;28;19986;-74
2023/06/17 13:10:41;;;;;;;;;;;30.10;99.90;;;;;;5075088;28;20364;-74
2023/06/17 13:13:07;;;;;;;;;;;30.20;99.90;;;;;;5093223;28;19969;-74
2023/06/17 13:15:33;;;;;;;;;;;30.30;99.90;;;;;;5093268;28;19904;-74
2023/06/17 13:17:59;;;;;;;;;;;30.40;99.90;;;;;;5093099;28;19910;-74
2023/06/17 13:20:25;;;;;;;;;;;30.40;99.90;;;;;;5093897;28;19908;-74
2023/06/17 13:22:51;;;;;;;;;;;29.70;99.90;;;;;;5093237;28;19904;-75
2023/06/17 13:25:17;;;;;;;;;;;30.10;99.90;;;;;;5093380;28;19927;-74
2023/06/17 13:27:43;;;;;;;;;;;30.60;99.90;;;;;;5092850;28;19904;-75
2023/06/17 13:30:09;;;;;;;;;;;30.90;99.90;;;;;;5093314;28;19919;-75
2023/06/17 13:32:35;;;;;;;;;;;31.10;99.90;;;;;;5092651;28;20256;-76
2023/06/17 13:35:04;;;;;;;;;;;31.10;99.90;;;;;;5092947;28;19904;-75
2023/06/17 13:37:31;;;;;;;;;;;31.00;99.90;;;;;;5093160;28;19908;-74
2023/06/17 13:39:57;;;;;;;;;;;30.60;99.90;;;;;;5092845;28;19904;-75
2023/06/17 13:42:23;;;;;;;;;;;30.40;99.90;;;;;;5096049;28;19987;-75
2023/06/17 13:44:48;;;;;;;;;;;30.60;99.90;;;;;;5096646;28;20269;-74
2023/06/17 13:47:14;;;;;;;;;;;30.80;99.90;;;;;;5096845;28;19998;-76
2023/06/17 13:49:40;;;;;;;;;;;30.80;99.90;;;;;;5096576;28;20002;-75
2023/06/17 13:52:07;;;;;;;;;;;30.90;99.90;;;;;;5096820;28;19950;-75
2023/06/17 13:54:33;;;;;;;;;;;31.10;99.90;;;;;;5096624;28;19904;-75
2023/06/17 13:56:59;;;;;;;;;;;31.00;99.90;;;;;;5096598;28;19904;-75
2023/06/17 13:59:25;;;;;;;;;;;30.90;99.90;;;;;;5096416;28;19904;-74
2023/06/17 14:01:50;;;;;;;;;;;30.80;99.90;;;;;;5096786;28;20271;-75
2023/06/17 14:04:16;;;;;;;;;;;30.70;99.90;;;;;;5096797;28;20352;-75
2023/06/17 14:06:45;;;;;;;;;;;30.90;99.90;;;;;;5096071;28;19904;-75
2023/06/17 14:09:12;;;;;;;;;;;31.00;99.90;;;;;;5096258;28;19911;-75
2023/06/17 14:11:38;;;;;;;;;;;31.10;99.90;;;;;;5096090;28;19912;-75
2023/06/17 14:14:04;;;;;;;;;;;31.20;99.90;;;;;;5077611;28;19916;-76